Time;durP1;ratioP1;P1;durP2;ratioP2;P2;SDS_P1;SDS_P2;PMS_P1;PMS_P2;Temp;Humidity;BMP_temperature;BMP_pressure;BME280_temperature;BME280_humidity;BME280_pressure;Samples;Min_cycle;Max_cycle;Signal;HPM_P1;HPM_P2
2021/08/11 00:00:47;;;;;;;13.82;7.50;;;11.60;99.90;;;;;;4995963;28;20574;-74
2021/08/11 00:03:14;;;;;;;11.57;7.88;;;11.40;99.90;;;;;;5002022;28;20489;-73
2021/08/11 00:05:41;;;;;;;18.05;9.68;;;11.40;99.90;;;;;;4986127;28;20057;-74
2021/08/11 00:08:08;;;;;;;19.92;10.48;;;11.40;99.90;;;;;;4986455;28;20084;-74
2021/08/11 00:10:34;;;;;;;27.05;13.68;;;11.30;99.90;;;;;;4985674;28;20058;-74
2021/08/11 00:13:01;;;;;;;18.00;10.95;;;11.30;99.90;;;;;;4969767;28;20108;-73
2021/08/11 00:15:28;;;;;;;26.45;14.13;;;11.40;99.90;;;;;;4969175;28;20332;-73
2021/08/11 00:17:55;;;;;;;23.08;12.68;;;11.40;99.90;;;;;;4969034;28;20078;-73
2021/08/11 00:20:24;;;;;;;21.48;12.30;;;11.50;99.90;;;;;;4987214;28;20054;-73
2021/08/11 00:22:52;;;;;;;21.42;13.00;;;11.60;99.90;;;;;;4969744;28;20057;-73
2021/08/11 00:25:19;;;;;;;22.65;12.93;;;11.60;99.90;;;;;;4984675;28;20223;-74
2021/08/11 00:27:46;;;;;;;23.58;13.75;;;11.60;99.90;;;;;;4970048;28;20054;-74
2021/08/11 00:30:13;;;;;;;25.20;13.32;;;11.70;99.90;;;;;;4971903;28;20052;-74
2021/08/11 00:32:40;;;;;;;23.40;13.07;;;11.80;99.90;;;;;;4992507;28;20144;-73
2021/08/11 00:35:07;;;;;;;18.95;10.77;;;11.90;99.90;;;;;;4987862;28;20450;-73
2021/08/11 00:37:34;;;;;;;16.25;10.20;;;11.90;99.90;;;;;;4988665;28;20072;-73
2021/08/11 00:40:03;;;;;;;14.90;9.43;;;11.90;99.90;;;;;;4969917;28;20054;-73
2021/08/11 00:42:30;;;;;;;17.52;9.13;;;11.90;99.90;;;;;;5005076;28;20135;-73
2021/08/11 00:45:04;;;;;;;17.20;9.90;;;12.00;99.90;;;;;;4980925;28;20088;-74
2021/08/11 00:47:36;;;;;;;15.75;10.32;;;12.10;99.90;;;;;;4984750;28;20062;-73
2021/08/11 00:50:05;;;;;;;15.77;10.43;;;12.10;99.90;;;;;;4986620;28;20074;-73
2021/08/11 00:52:33;;;;;;;16.95;11.35;;;12.10;99.90;;;;;;5006922;28;20038;-72
2021/08/11 00:55:04;;;;;;;15.25;9.90;;;12.20;99.90;;;;;;4974044;28;20354;-73
2021/08/11 00:57:32;;;;;;;20.60;11.32;;;12.30;99.90;;;;;;4993367;28;20050;-74
2021/08/11 01:00:01;;;;;;;20.65;11.35;;;12.40;99.90;;;;;;5004685;28;20554;-73
2021/08/11 01:02:32;;;;;;;22.35;14.10;;;12.40;99.90;;;;;;4972491;28;20084;-73
2021/08/11 01:05:01;;;;;;;24.00;13.73;;;12.40;99.90;;;;;;4991253;28;20065;-74
2021/08/11 01:07:32;;;;;;;25.00;14.15;;;12.40;99.90;;;;;;4969217;28;20489;-73
2021/08/11 01:10:01;;;;;;;21.42;14.18;;;12.40;99.90;;;;;;4985159;28;20426;-73
2021/08/11 01:12:28;;;;;;;20.20;12.35;;;12.30;99.90;;;;;;4968933;28;20061;-73
2021/08/11 01:14:56;;;;;;;19.17;11.52;;;12.40;99.90;;;;;;4984794;28;20570;-73
2021/08/11 01:17:25;;;;;;;24.15;11.25;;;12.40;99.90;;;;;;4968962;28;20082;-73
2021/08/11 01:19:57;;;;;;;20.42;12.32;;;12.40;99.90;;;;;;4984934;28;20070;-73
2021/08/11 01:22:46;;;;;;;16.13;11.43;;;12.30;99.90;;;;;;4985698;28;20050;-73
2021/08/11 01:25:19;;;;;;;17.60;10.82;;;12.30;99.90;;;;;;4984772;28;20050;-73
2021/08/11 01:28:24;;;;;;;22.05;13.30;;;12.20;99.90;;;;;;4985451;28;20059;-73
2021/08/11 01:31:14;;;;;;;19.65;11.77;;;12.00;99.90;;;;;;4992019;28;20046;-73
2021/08/11 01:34:14;;;;;;;16.73;10.63;;;11.90;99.90;;;;;;4983835;28;20521;-73
2021/08/11 01:36:58;;;;;;;21.10;11.35;;;11.80;99.90;;;;;;4977333;28;20057;-74
2021/08/11 01:39:43;;;;;;;29.17;11.32;;;11.80;99.90;;;;;;5002302;28;20076;-74
2021/08/11 01:42:23;;;;;;;20.67;11.48;;;11.80;99.90;;;;;;5002608;28;20041;-73
2021/08/11 01:45:12;;;;;;;16.83;10.45;;;11.90;99.90;;;;;;4984098;28;20525;-73
2021/08/11 01:47:51;;;;;;;;;;;12.00;99.90;;;;;;4968380;28;20050;-74
2021/08/11 01:50:21;;;;;;;20.30;11.57;;;11.80;99.90;;;;;;4984216;28;19933;-74
2021/08/11 01:52:50;;;;;;;19.30;10.43;;;11.70;99.90;;;;;;4985236;28;20096;-73
2021/08/11 01:55:18;;;;;;;20.35;11.25;;;11.60;99.90;;;;;;4967770;28;20042;-74
2021/08/11 01:57:53;;;;;;;19.90;10.88;;;11.70;99.90;;;;;;4968425;28;20487;-74
2021/08/11 02:00:30;;;;;;;18.90;10.45;;;11.70;99.90;;;;;;4973658;28;20481;-74
2021/08/11 02:03:01;;;;;;;24.73;11.85;;;11.70;99.90;;;;;;4976087;28;20097;-73
2021/08/11 02:05:30;;;;;;;19.67;11.70;;;11.90;99.90;;;;;;5003183;28;20101;-72
2021/08/11 02:08:04;;;;;;;21.55;12.05;;;12.00;99.90;;;;;;4969686;28;20089;-74
2021/08/11 02:10:32;;;;;;;18.48;11.38;;;12.00;99.90;;;;;;4983928;28;20474;-74
2021/08/11 02:13:00;;;;;;;19.30;10.68;;;11.90;99.90;;;;;;4985763;28;20062;-74
2021/08/11 02:15:29;;;;;;;14.93;9.80;;;11.90;99.90;;;;;;4992369;28;20058;-73
2021/08/11 02:17:56;;;;;;;19.88;12.75;;;12.00;99.90;;;;;;4984268;28;20306;-73
2021/08/11 02:20:24;;;;;;;20.30;12.70;;;12.20;99.90;;;;;;4966653;28;20585;-73
2021/08/11 02:22:56;;;;;;;20.90;12.20;;;12.10;99.90;;;;;;4967314;28;20133;-73
2021/08/11 02:25:23;;;;;;;19.65;11.27;;;12.20;99.90;;;;;;4967233;28;20055;-73
2021/08/11 02:28:01;;;;;;;24.90;12.93;;;12.30;99.90;;;;;;4996938;28;20057;-73
2021/08/11 02:31:00;;;;;;;38.78;16.17;;;12.30;99.90;;;;;;4964289;28;20041;-73
2021/08/11 02:33:44;;;;;;;19.70;11.60;;;12.30;99.90;;;;;;4980446;28;20128;-73
2021/08/11 02:36:29;;;;;;;16.48;11.07;;;12.10;99.90;;;;;;4982571;28;20633;-73
2021/08/11 02:39:03;;;;;;;18.80;11.65;;;12.20;99.90;;;;;;4967494;28;20054;-73
2021/08/11 02:41:41;;;;;;;18.43;9.93;;;12.20;99.90;;;;;;4965435;28;20046;-73
2021/08/11 02:44:17;;;;;;;20.73;11.80;;;12.10;99.90;;;;;;4986225;28;20541;-73
2021/08/11 02:46:45;;;;;;;20.92;13.18;;;12.10;99.90;;;;;;4986780;28;20082;-74
2021/08/11 02:49:21;;;;;;;22.25;11.75;;;12.10;99.90;;;;;;5002926;28;20111;-74
2021/08/11 02:51:48;;;;;;;20.92;11.43;;;12.10;99.90;;;;;;4977315;28;20475;-73
2021/08/11 02:54:19;;;;;;;31.60;16.58;;;12.30;99.90;;;;;;4967378;28;20051;-73
2021/08/11 02:56:48;;;;;;;25.60;13.90;;;12.30;99.90;;;;;;4985798;28;20060;-74
2021/08/11 02:59:16;;;;;;;26.23;12.98;;;12.30;99.90;;;;;;5000580;28;20054;-74
2021/08/11 03:01:43;;;;;;;20.35;12.40;;;12.40;99.90;;;;;;4994792;28;20050;-74
2021/08/11 03:04:13;;;;;;;20.45;12.90;;;12.40;99.90;;;;;;4978912;28;20061;-74
2021/08/11 03:06:41;;;;;;;20.67;13.13;;;12.40;99.90;;;;;;4981921;28;20315;-74
2021/08/11 03:09:09;;;;;;;22.40;13.75;;;12.40;99.90;;;;;;4983567;28;20070;-74
2021/08/11 03:11:37;;;;;;;23.20;12.70;;;12.40;99.90;;;;;;4966325;28;20061;-74
2021/08/11 03:14:06;;;;;;;19.92;12.60;;;12.40;99.90;;;;;;4966923;28;20668;-74
2021/08/11 03:16:37;;;;;;;22.20;12.48;;;12.40;99.90;;;;;;4966879;28;20054;-74
2021/08/11 03:19:06;;;;;;;22.05;13.35;;;12.40;99.90;;;;;;4984582;28;20034;-74
2021/08/11 03:21:35;;;;;;;25.23;15.27;;;12.60;99.90;;;;;;4982800;28;20042;-73
2021/08/11 03:24:02;;;;;;;28.20;15.63;;;12.70;99.90;;;;;;4966815;28;20057;-74
2021/08/11 03:26:29;;;;;;;23.13;12.43;;;12.60;99.90;;;;;;4961149;28;20141;-74
2021/08/11 03:29:01;;;;;;;24.58;12.55;;;12.60;99.90;;;;;;5001938;28;20133;-73
2021/08/11 03:31:32;;;;;;;28.52;15.15;;;12.60;99.90;;;;;;4992166;28;20053;-73
2021/08/11 03:33:59;;;;;;;25.52;13.30;;;12.50;99.90;;;;;;4976746;28;20051;-74
2021/08/11 03:36:30;;;;;;;30.48;16.35;;;12.50;99.90;;;;;;4977364;28;20422;-74
2021/08/11 03:38:58;;;;;;;26.08;14.73;;;12.40;99.90;;;;;;5006032;28;20057;-74
2021/08/11 03:41:25;;;;;;;28.50;14.15;;;12.50;99.90;;;;;;5004484;28;20404;-74
2021/08/11 03:43:52;;;;;;;25.35;15.35;;;12.40;99.90;;;;;;5004689;28;20237;-74
2021/08/11 03:46:24;;;;;;;29.77;16.20;;;12.40;99.90;;;;;;4973766;28;20143;-74
2021/08/11 03:48:51;;;;;;;28.13;14.98;;;12.50;99.90;;;;;;5005985;28;20141;-74
2021/08/11 03:51:19;;;;;;;27.98;14.70;;;12.50;99.90;;;;;;5001765;28;20440;-73
2021/08/11 03:53:45;;;;;;;33.47;17.58;;;12.60;99.90;;;;;;4985693;28;20054;-74
2021/08/11 03:56:14;;;;;;;36.78;18.10;;;12.70;99.90;;;;;;4985538;28;20565;-74
2021/08/11 03:58:41;;;;;;;29.42;16.27;;;12.70;99.90;;;;;;4951058;28;20058;-74
2021/08/11 04:01:09;;;;;;;39.35;19.92;;;12.80;99.90;;;;;;5037592;22;21911;-85
2021/08/11 04:03:36;;;;;;;38.28;19.58;;;12.80;99.90;;;;;;5001662;28;20041;-84
2021/08/11 04:06:03;;;;;;;36.33;18.63;;;12.90;99.90;;;;;;5001853;28;20129;-84
2021/08/11 04:08:30;;;;;;;33.72;17.75;;;12.90;99.90;;;;;;4999590;28;20508;-83
2021/08/11 04:10:56;;;;;;;37.65;20.83;;;12.90;99.90;;;;;;5032208;28;20046;-85
2021/08/11 04:13:23;;;;;;;33.13;18.58;;;12.90;99.90;;;;;;5015887;28;20069;-86
2021/08/11 04:15:50;;;;;;;33.40;17.27;;;12.90;99.90;;;;;;5030692;28;20042;-86
2021/08/11 04:18:19;;;;;;;33.03;17.25;;;13.00;99.90;;;;;;5001470;28;20046;-83
2021/08/11 04:20:45;;;;;;;32.03;17.80;;;13.00;99.90;;;;;;5032882;28;20046;-86
2021/08/11 04:23:13;;;;;;;33.03;17.73;;;12.90;99.90;;;;;;5016769;28;20350;-83
2021/08/11 04:25:41;;;;;;;40.47;19.42;;;13.10;99.90;;;;;;5015437;28;20088;-83
2021/08/11 04:28:09;;;;;;;37.28;19.85;;;13.20;99.90;;;;;;5000055;28;20050;-85
2021/08/11 04:30:36;;;;;;;40.95;19.23;;;13.30;99.90;;;;;;5011649;28;20049;-85
2021/08/11 04:33:03;;;;;;;38.03;18.75;;;13.30;99.90;;;;;;5028288;28;20058;-85
2021/08/11 04:35:30;;;;;;;42.00;20.60;;;13.30;99.90;;;;;;5034340;28;20045;-85
2021/08/11 04:37:57;;;;;;;40.70;20.95;;;13.20;99.90;;;;;;5029445;28;20621;-86
2021/08/11 04:40:24;;;;;;;45.55;22.13;;;13.30;99.90;;;;;;4990150;28;20065;-85
2021/08/11 04:42:51;;;;;;;39.20;20.55;;;13.30;99.90;;;;;;5000086;28;20046;-86
2021/08/11 04:45:19;;;;;;;39.75;20.38;;;13.40;99.90;;;;;;5016536;28;20034;-85
2021/08/11 04:47:47;;;;;;;49.22;23.10;;;13.30;99.90;;;;;;5022088;28;20073;-83
2021/08/11 04:50:15;;;;;;;47.38;24.08;;;13.40;99.90;;;;;;5017201;28;20042;-84
2021/08/11 04:52:43;;;;;;;53.42;24.20;;;13.50;99.90;;;;;;4998819;28;20096;-84
2021/08/11 04:55:12;;;;;;;47.08;24.08;;;13.30;99.90;;;;;;5001539;28;20524;-86
2021/08/11 04:57:39;;;;;;;39.33;21.17;;;13.40;99.90;;;;;;4999120;28;20122;-84
2021/08/11 05:00:07;;;;;;;37.63;21.42;;;13.40;99.90;;;;;;4988285;28;20153;-86
2021/08/11 05:02:34;;;;;;;40.42;20.17;;;13.50;99.90;;;;;;5005927;28;20092;-86
2021/08/11 05:05:02;;;;;;;40.75;21.08;;;13.60;99.90;;;;;;5014630;28;20129;-84
2021/08/11 05:07:29;;;;;;;41.40;23.23;;;13.70;99.90;;;;;;4999574;28;20049;-86
2021/08/11 05:09:56;;;;;;;48.15;24.35;;;13.80;99.90;;;;;;5009250;28;20062;-82
2021/08/11 05:12:24;;;;;;;41.00;21.20;;;13.80;99.90;;;;;;5049203;28;20045;-84
2021/08/11 05:14:55;;;;;;;44.20;22.13;;;13.90;99.90;;;;;;5030672;28;20049;-85
2021/08/11 05:17:22;;;;;;;38.95;22.27;;;14.00;99.90;;;;;;5033095;28;20054;-84
2021/08/11 05:19:52;;;;;;;42.25;22.85;;;14.00;99.90;;;;;;5030678;28;20283;-84
2021/08/11 05:22:22;;;;;;;39.17;21.90;;;14.00;99.90;;;;;;5001614;28;20050;-85
2021/08/11 05:24:50;;;;;;;39.50;23.00;;;14.10;99.90;;;;;;5010956;28;20929;-83
2021/08/11 05:27:18;;;;;;;41.60;25.20;;;14.10;99.90;;;;;;5015000;28;20133;-85
2021/08/11 05:29:45;;;;;;;43.58;22.25;;;14.20;99.90;;;;;;5016649;28;20120;-86
2021/08/11 05:32:17;;;;;;;39.83;22.40;;;14.30;99.90;;;;;;5018464;28;20080;-84
2021/08/11 05:34:44;;;;;;;39.53;22.95;;;14.40;99.90;;;;;;4999795;28;20049;-86
2021/08/11 05:37:12;;;;;;;41.47;22.15;;;14.30;99.90;;;;;;4998473;28;20049;-83
2021/08/11 05:39:40;;;;;;;42.25;24.10;;;14.40;99.90;;;;;;4999066;28;20038;-84
2021/08/11 05:42:07;;;;;;;42.85;23.60;;;14.40;99.90;;;;;;5017987;28;20390;-84
2021/08/11 05:44:35;;;;;;;45.03;24.83;;;14.40;99.90;;;;;;5015525;28;20046;-85
2021/08/11 05:47:04;;;;;;;44.33;24.83;;;14.30;99.90;;;;;;5015739;28;20449;-84
2021/08/11 05:49:34;;;;;;;47.78;25.55;;;14.40;99.90;;;;;;5032659;28;20050;-85
2021/08/11 05:52:05;;;;;;;48.17;25.38;;;14.50;99.90;;;;;;5007624;28;20052;-85
2021/08/11 05:54:35;;;;;;;43.10;23.38;;;14.60;99.90;;;;;;5007571;28;20049;-85
2021/08/11 05:57:06;;;;;;;45.55;25.10;;;14.60;99.90;;;;;;5017783;28;20049;-86
2021/08/11 05:59:37;;;;;;;46.28;24.88;;;14.70;99.90;;;;;;4999369;28;20066;-87
2021/08/11 06:02:04;;;;;;;39.97;22.98;;;14.70;99.90;;;;;;5003471;28;20539;-84
2021/08/11 06:04:35;;;;;;;39.15;23.30;;;14.80;99.90;;;;;;4996566;28;20042;-87
2021/08/11 06:07:03;;;;;;;46.67;24.17;;;14.80;99.90;;;;;;4983459;28;20479;-83
2021/08/11 06:09:32;;;;;;;40.35;23.60;;;14.90;99.90;;;;;;4996805;28;20108;-84
2021/08/11 06:12:00;;;;;;;42.95;24.27;;;15.00;99.90;;;;;;5000407;28;20251;-82
2021/08/11 06:14:27;;;;;;;39.42;23.45;;;15.10;99.90;;;;;;4998574;28;20089;-84
2021/08/11 06:16:55;;;;;;;41.90;23.25;;;15.10;99.90;;;;;;4994625;28;20108;-86
2021/08/11 06:19:21;;;;;;;40.80;22.65;;;15.20;99.90;;;;;;5015819;28;20080;-84
2021/08/11 06:21:48;;;;;;;41.05;23.10;;;15.30;99.90;;;;;;4986040;28;20085;-85
2021/08/11 06:24:15;;;;;;;43.17;21.90;;;15.40;99.90;;;;;;4995159;28;20045;-83
2021/08/11 06:26:42;;;;;;;36.40;21.55;;;15.60;99.90;;;;;;4994639;28;20042;-85
2021/08/11 06:29:10;;;;;;;38.90;21.23;;;15.60;99.90;;;;;;5001903;28;20077;-86
2021/08/11 06:31:37;;;;;;;32.65;20.92;;;15.60;99.90;;;;;;5005827;28;20041;-85
2021/08/11 06:34:05;;;;;;;35.40;21.23;;;15.70;99.90;;;;;;4999582;28;20064;-85
2021/08/11 06:36:32;;;;;;;37.40;20.40;;;15.70;99.90;;;;;;4996501;28;20053;-84
2021/08/11 06:38:59;;;;;;;35.25;21.85;;;15.90;99.90;;;;;;4996427;28;20050;-84
2021/08/11 06:41:26;;;;;;;34.00;20.70;;;16.10;99.90;;;;;;4977271;28;20054;-84
2021/08/11 06:44:05;;;;;;;33.75;21.55;;;16.20;99.90;;;;;;4976062;28;20424;-83
2021/08/11 06:46:32;;;;;;;32.00;19.10;;;16.40;99.90;;;;;;4991942;28;20121;-84
2021/08/11 06:49:00;;;;;;;30.05;19.23;;;16.70;99.90;;;;;;4996668;28;20042;-85
2021/08/11 06:51:27;;;;;;;34.58;20.02;;;16.80;99.90;;;;;;4979384;28;20101;-84
2021/08/11 06:53:55;;;;;;;34.97;19.58;;;17.10;99.90;;;;;;5000124;28;20053;-85
2021/08/11 06:56:22;;;;;;;33.65;19.90;;;17.10;99.90;;;;;;4975309;28;20070;-85
2021/08/11 06:58:49;;;;;;;33.47;21.23;;;17.30;99.90;;;;;;4976177;28;20118;-86
2021/08/11 07:01:19;;;;;;;33.08;20.58;;;17.40;99.90;;;;;;4963745;28;20046;-87
2021/08/11 07:03:52;;;;;;;35.85;21.92;;;17.40;99.90;;;;;;4984470;28;20038;-86
2021/08/11 07:06:22;;;;;;;40.50;24.83;;;17.50;99.90;;;;;;4963855;28;20073;-86
2021/08/11 07:08:49;;;;;;;47.67;28.70;;;17.50;99.90;;;;;;4970163;28;20785;-87
2021/08/11 07:11:18;;;;;;;49.40;29.52;;;17.40;99.90;;;;;;5000993;28;20041;-86
2021/08/11 07:13:45;;;;;;;55.13;32.65;;;17.40;99.90;;;;;;5001912;28;20491;-87
2021/08/11 07:16:15;;;;;;;61.28;34.55;;;17.40;99.90;;;;;;4993057;28;20384;-84
2021/08/11 07:18:42;;;;;;;58.40;34.00;;;17.40;99.90;;;;;;4999780;28;20070;-83
2021/08/11 07:21:15;;;;;;;54.53;32.13;;;17.70;99.90;;;;;;4988013;28;20053;-87
2021/08/11 07:23:44;;;;;;;55.78;34.22;;;18.00;99.90;;;;;;5001309;28;20390;-84
2021/08/11 07:26:13;;;;;;;50.22;32.70;;;18.20;99.90;;;;;;5006902;28;20046;-84
2021/08/11 07:28:40;;;;;;;54.60;33.60;;;18.20;99.90;;;;;;5000272;28;20046;-84
2021/08/11 07:31:07;;;;;;;53.42;33.13;;;18.10;99.90;;;;;;5005543;28;20699;-87
2021/08/11 07:33:36;;;;;;;51.38;33.03;;;18.00;99.90;;;;;;5004566;28;20053;-86
2021/08/11 07:36:04;;;;;;;48.35;31.30;;;18.20;99.90;;;;;;5020760;28;20104;-87
2021/08/11 07:38:35;;;;;;;47.85;31.48;;;18.50;99.90;;;;;;5024976;28;20068;-86
2021/08/11 07:41:05;;;;;;;49.53;31.55;;;18.90;99.90;;;;;;4979071;28;20038;-84
2021/08/11 07:43:32;;;;;;;53.65;34.47;;;19.10;99.90;;;;;;4994623;28;20232;-85
2021/08/11 07:45:59;;;;;;;51.13;32.60;;;19.00;99.90;;;;;;4984709;28;20046;-84
2021/08/11 07:48:34;;;;;;;55.72;35.10;;;18.90;99.90;;;;;;5001285;28;20041;-88
2021/08/11 07:51:02;;;;;;;51.65;34.30;;;18.80;99.90;;;;;;4976064;28;20603;-86
2021/08/11 07:53:32;;;;;;;53.17;34.38;;;18.70;99.90;;;;;;4993384;28;20092;-87
2021/08/11 07:56:03;;;;;;;50.05;34.90;;;18.60;99.90;;;;;;4999912;28;20050;-83
2021/08/11 07:58:30;;;;;;;48.38;34.33;;;18.70;99.90;;;;;;5003314;28;20263;-84
2021/08/11 08:00:57;;;;;;;51.42;32.97;;;18.50;99.90;;;;;;5008270;28;20093;-85
2021/08/11 08:03:25;;;;;;;55.50;35.65;;;18.30;99.90;;;;;;5002570;28;20080;-86
2021/08/11 08:05:53;;;;;;;55.67;36.05;;;18.30;99.90;;;;;;4996859;28;20514;-86
2021/08/11 08:08:20;;;;;;;46.15;32.92;;;18.40;99.90;;;;;;4998081;28;20085;-86
2021/08/11 08:10:53;;;;;;;48.40;33.42;;;18.80;99.90;;;;;;5002344;28;20084;-84
2021/08/11 08:13:20;;;;;;;42.47;30.42;;;19.50;99.90;;;;;;5003416;28;20470;-85
2021/08/11 08:15:49;;;;;;;41.33;31.98;;;20.00;99.90;;;;;;5016690;23;20503;-75
2021/08/11 08:18:23;;;;;;;42.53;33.13;;;20.60;99.90;;;;;;4966193;28;20065;-76
2021/08/11 08:20:51;;;;;;;36.45;29.55;;;20.80;99.90;;;;;;4985789;28;20391;-75
2021/08/11 08:23:19;;;;;;;45.53;34.13;;;20.50;99.90;;;;;;4984098;28;20485;-75
2021/08/11 08:25:46;;;;;;;43.28;31.42;;;19.90;99.90;;;;;;4985343;28;20061;-75
2021/08/11 08:28:13;;;;;;;37.47;28.83;;;20.20;99.90;;;;;;4952070;28;20038;-75
2021/08/11 08:30:45;;;;;;;37.83;28.67;;;20.30;99.90;;;;;;4971854;28;20042;-74
2021/08/11 08:33:12;;;;;;;37.28;29.52;;;20.10;99.90;;;;;;4998362;28;20607;-74
2021/08/11 08:35:39;;;;;;;37.78;29.48;;;19.80;99.90;;;;;;4984847;28;20084;-75
2021/08/11 08:38:06;;;;;;;37.50;28.17;;;19.60;99.90;;;;;;4988731;28;20104;-74
2021/08/11 08:40:36;;;;;;;35.08;26.98;;;19.50;99.90;;;;;;4971555;28;20124;-76
2021/08/11 08:43:05;;;;;;;36.20;27.70;;;19.60;99.90;;;;;;4970009;28;20491;-75
2021/08/11 08:45:33;;;;;;;32.70;25.63;;;19.70;99.90;;;;;;4984751;28;20051;-75
2021/08/11 08:48:04;;;;;;;31.02;27.13;;;19.90;99.90;;;;;;4970432;28;20046;-76
2021/08/11 08:50:33;;;;;;;37.25;30.23;;;20.30;99.90;;;;;;4986960;28;20043;-76
2021/08/11 08:53:03;;;;;;;35.67;30.15;;;20.80;99.90;;;;;;4985430;28;20113;-75
2021/08/11 08:55:32;;;;;;;36.03;30.52;;;21.10;99.90;;;;;;4953117;28;20046;-75
2021/08/11 08:57:58;;;;;;;23.85;21.55;;;21.40;99.90;;;;;;4984216;28;20470;-74
2021/08/11 09:00:25;;;;;;;26.65;24.23;;;21.90;99.90;;;;;;4991235;28;20129;-75
2021/08/11 09:02:52;;;;;;;28.40;24.98;;;22.00;99.90;;;;;;4998941;28;20049;-75
2021/08/11 09:05:20;;;;;;;25.35;22.73;;;22.10;99.90;;;;;;4987559;28;20046;-75
2021/08/11 09:07:48;;;;;;;27.05;24.38;;;22.20;99.90;;;;;;4967894;28;20053;-75
2021/08/11 09:10:21;;;;;;;27.17;24.27;;;22.30;99.90;;;;;;4967876;28;20145;-75
2021/08/11 09:13:08;;;;;;;27.52;24.67;;;22.40;99.90;;;;;;4969615;28;20117;-75
2021/08/11 09:15:41;;;;;;;27.20;24.45;;;22.60;99.90;;;;;;4982990;28;20054;-75
2021/08/11 09:18:18;;;;;;;24.08;21.95;;;22.80;99.90;;;;;;4946180;28;20054;-75
2021/08/11 09:20:58;;;;;;;28.23;25.45;;;23.00;99.90;;;;;;4981158;28;20066;-75
2021/08/11 09:23:38;;;;;;;26.58;23.92;;;23.00;99.90;;;;;;4967512;28;20430;-75
2021/08/11 09:26:08;;;;;;;29.08;25.95;;;22.60;99.90;;;;;;4994270;28;20173;-75
2021/08/11 09:28:40;;;;;;;27.05;24.17;;;22.20;99.90;;;;;;5004452;28;20447;-75
2021/08/11 09:31:22;;;;;;;26.83;24.10;;;22.20;99.90;;;;;;4975220;28;20462;-76
2021/08/11 09:33:51;;;;;;;20.98;19.05;;;22.00;99.90;;;;;;4972441;28;20058;-75
2021/08/11 09:36:19;;;;;;;22.85;20.65;;;21.80;99.90;;;;;;5002624;28;20054;-75
2021/08/11 09:39:01;;;;;;;21.25;19.25;;;21.90;99.90;;;;;;5004148;28;20069;-75
2021/08/11 09:41:29;;;;;;;19.38;17.55;;;22.00;99.90;;;;;;4971291;28;20056;-75
2021/08/11 09:44:22;;;;;;;20.17;18.30;;;22.20;99.90;;;;;;4987235;28;20073;-76
2021/08/11 09:46:49;;;;;;;21.27;19.58;;;22.40;99.90;;;;;;4969129;28;20073;-76
2021/08/11 09:49:19;;;;;;;24.30;21.88;;;22.50;99.90;;;;;;4987337;28;20037;-75
2021/08/11 09:52:00;;;;;;;22.25;20.05;;;22.70;99.90;;;;;;4966487;28;20042;-74
2021/08/11 09:54:31;;;;;;;20.85;19.17;;;22.60;99.90;;;;;;4967210;28;20458;-75
2021/08/11 09:56:59;;;;;;;22.05;19.95;;;22.70;99.90;;;;;;4983293;28;20066;-76
2021/08/11 09:59:26;;;;;;;24.80;22.48;;;22.80;99.90;;;;;;4985848;28;20050;-76
2021/08/11 10:02:16;;;;;;;27.15;24.23;;;22.80;99.90;;;;;;4960638;28;20476;-75
2021/08/11 10:04:43;;;;;;;26.58;23.92;;;22.60;99.90;;;;;;4959576;28;20069;-76
2021/08/11 10:07:10;;;;;;;24.73;22.27;;;22.50;99.90;;;;;;4997339;28;20064;-74
2021/08/11 10:09:40;;;;;;;28.10;25.40;;;22.40;99.90;;;;;;5003222;28;20502;-75
2021/08/11 10:12:28;;;;;;;25.73;23.13;;;22.50;99.90;;;;;;5002155;28;20060;-75
2021/08/11 10:15:00;;;;;;;24.13;21.77;;;22.10;99.90;;;;;;4998877;28;20469;-75
2021/08/11 10:17:34;;;;;;;25.75;22.58;;;22.00;99.90;;;;;;4979173;28;20060;-76
2021/08/11 10:20:09;;;;;;;26.73;22.02;;;21.70;99.90;;;;;;4993295;28;20426;-75
2021/08/11 10:22:39;;;;;;;25.70;23.25;;;21.80;99.90;;;;;;4978734;28;20046;-75
2021/08/11 10:25:08;;;;;;;25.50;22.90;;;21.90;99.90;;;;;;4962422;28;20314;-75
2021/08/11 10:27:35;;;;;;;25.00;22.38;;;22.10;99.90;;;;;;4979802;28;20046;-76
2021/08/11 10:30:02;;;;;;;25.17;22.85;;;22.50;99.90;;;;;;4990002;28;20104;-74
2021/08/11 10:32:31;;;;;;;26.52;23.95;;;22.50;99.90;;;;;;4966378;28;20050;-76
2021/08/11 10:34:59;;;;;;;24.63;22.48;;;22.60;99.90;;;;;;4983778;28;20050;-74
2021/08/11 10:37:25;;;;;;;26.95;23.13;;;22.70;99.90;;;;;;4951776;28;20105;-74
2021/08/11 10:39:52;;;;;;;23.33;21.10;;;22.70;99.90;;;;;;4995174;28;20054;-74
2021/08/11 10:42:19;;;;;;;23.27;21.13;;;22.70;99.90;;;;;;4965207;28;20054;-75
2021/08/11 10:44:47;;;;;;;25.10;22.58;;;22.50;99.90;;;;;;4980316;28;20526;-75
2021/08/11 10:47:15;;;;;;;24.88;21.90;;;22.40;99.90;;;;;;4980244;28;20125;-76
2021/08/11 10:49:56;;;;;;;21.90;19.73;;;22.20;99.90;;;;;;4964908;28;20070;-76
2021/08/11 10:52:23;;;;;;;21.85;20.02;;;22.20;99.90;;;;;;4984260;28;20042;-73
2021/08/11 10:55:02;;;;;;;22.80;20.77;;;22.10;99.90;;;;;;5009883;23;20417;-71
2021/08/11 10:57:34;;;;;;;22.05;20.15;;;22.30;99.90;;;;;;5005914;28;20400;-71
2021/08/11 11:00:11;;;;;;;21.35;19.45;;;22.60;99.90;;;;;;4999528;28;20050;-72
2021/08/11 11:02:39;;;;;;;20.63;18.63;;;22.80;99.90;;;;;;4995034;28;20053;-72
2021/08/11 11:05:06;;;;;;;20.63;18.83;;;23.00;99.90;;;;;;5003319;28;20440;-72
2021/08/11 11:07:34;;;;;;;22.75;20.42;;;23.30;99.90;;;;;;5005981;28;20038;-71
2021/08/11 11:10:27;;;;;;;19.42;17.60;;;23.20;99.90;;;;;;5010197;28;20318;-71
2021/08/11 11:12:53;;;;;;;22.35;20.55;;;23.40;99.90;;;;;;5002213;28;20124;-70
2021/08/11 11:15:51;;;;;;;22.25;20.35;;;23.60;99.90;;;;;;5001966;28;20425;-70
2021/08/11 11:18:20;;;;;;;23.25;21.00;;;23.70;99.90;;;;;;4983540;28;20498;-71
2021/08/11 11:20:48;;;;;;;22.88;20.75;;;23.80;99.90;;;;;;5013646;28;20049;-71
2021/08/11 11:23:33;;;;;;;21.23;19.42;;;24.00;99.90;;;;;;4987971;28;20165;-71
2021/08/11 11:26:10;;;;;;;22.02;19.88;;;24.00;99.90;;;;;;5001270;28;20516;-71
2021/08/11 11:28:56;;;;;;;20.58;18.85;;;23.90;99.90;;;;;;5003460;28;20069;-71
2021/08/11 11:31:34;;;;;;;19.27;17.77;;;24.00;99.90;;;;;;4999481;28;20054;-72
2021/08/11 11:34:21;;;;;;;20.60;18.92;;;23.80;99.90;;;;;;5004278;28;20324;-71
2021/08/11 11:37:07;;;;;;;19.45;17.83;;;23.60;99.90;;;;;;4998837;28;20050;-71
2021/08/11 11:39:55;;;;;;;21.70;19.90;;;23.50;99.90;;;;;;5003968;28;20108;-72
2021/08/11 11:42:27;;;;;;;21.92;19.77;;;23.50;99.90;;;;;;4986399;28;20046;-71
2021/08/11 11:44:59;;;;;;;21.65;19.60;;;23.50;99.90;;;;;;4982898;28;20050;-73
2021/08/11 11:47:35;;;;;;;19.70;18.20;;;23.50;99.90;;;;;;4984902;28;20054;-72
2021/08/11 11:50:24;;;;;;;21.88;19.98;;;23.60;99.90;;;;;;4983695;28;20058;-73
2021/08/11 11:52:54;;;;;;;23.90;21.88;;;23.90;99.90;;;;;;4998649;28;20112;-75
2021/08/11 11:55:36;;;;;;;24.30;22.30;;;23.50;99.90;;;;;;5006579;28;20491;-75
2021/08/11 11:58:20;;;;;;;24.48;22.40;;;23.20;99.90;;;;;;5006185;28;20046;-75
2021/08/11 12:00:50;;;;;;;24.02;22.02;;;23.10;99.90;;;;;;5008013;28;20255;-75
2021/08/11 12:03:17;;;;;;;21.63;19.92;;;23.10;99.90;;;;;;5008530;28;20054;-75
2021/08/11 12:05:50;;;;;;;20.77;19.33;;;23.50;99.90;;;;;;5026416;28;20046;-75
2021/08/11 12:08:20;;;;;;;20.65;19.05;;;23.90;99.90;;;;;;5025552;28;20632;-75
2021/08/11 12:10:50;;;;;;;20.30;18.70;;;24.20;99.90;;;;;;5024960;28;20053;-75
2021/08/11 12:13:18;;;;;;;21.65;19.73;;;24.60;99.90;;;;;;5013070;28;20050;-75
2021/08/11 12:15:56;;;;;;;20.23;18.48;;;24.80;99.90;;;;;;4993920;28;20100;-75
2021/08/11 12:18:25;;;;;;;19.60;17.98;;;24.70;99.90;;;;;;4996629;28;20053;-73
2021/08/11 12:20:54;;;;;;;19.35;17.55;;;24.80;99.90;;;;;;4988344;28;20513;-73
2021/08/11 12:23:29;;;;;;;16.75;15.55;;;24.80;99.90;;;;;;5006351;28;20474;-75
2021/08/11 12:26:05;;;;;;;18.05;16.80;;;25.00;99.90;;;;;;5006121;28;20053;-73
2021/08/11 12:28:37;;;;;;;17.52;16.15;;;24.90;99.90;;;;;;5006580;28;20081;-74
2021/08/11 12:31:07;;;;;;;18.17;16.83;;;24.50;99.90;;;;;;5007425;28;20045;-74
2021/08/11 12:33:36;;;;;;;17.17;15.93;;;24.50;99.90;;;;;;5007928;28;20525;-73
2021/08/11 12:36:10;;;;;;;19.10;17.42;;;24.70;99.90;;;;;;5006375;28;20544;-74
2021/08/11 12:38:38;;;;;;;17.58;16.33;;;24.70;99.90;;;;;;5005429;28;20062;-73
2021/08/11 12:41:20;;;;;;;17.83;16.58;;;24.80;99.90;;;;;;5007699;28;20081;-74
2021/08/11 12:43:49;;;;;;;17.60;16.35;;;24.90;99.90;;;;;;5005496;28;20061;-74
2021/08/11 12:46:16;;;;;;;17.33;16.13;;;25.00;99.90;;;;;;5003391;28;20124;-74